Time;durP1;ratioP1;P1;durP2;ratioP2;P2;SDS_P1;SDS_P2;PMS_P1;PMS_P2;Temp;Humidity;BMP_temperature;BMP_pressure;BME280_temperature;BME280_humidity;BME280_pressure;Samples;Min_cycle;Max_cycle;Signal;HPM_P1;HPM_P2
2022/06/04 00:00:37;;;;;;;3.80;2.50;;;;;;;;;;4931172;28;20571;-80
2022/06/04 00:03:05;;;;;;;2.55;2.35;;;;;;;;;;4933710;28;20058;-79
2022/06/04 00:05:33;;;;;;;2.83;2.55;;;;;;;;;;4950347;28;20070;-80
2022/06/04 00:08:02;;;;;;;4.05;2.70;;;;;;;;;;4914101;28;20064;-79
2022/06/04 00:16:06;;;;;;;3.05;2.75;;;;;;;;;;4951934;28;20107;-80
2022/06/04 00:18:33;;;;;;;2.40;2.30;;;;;;;;;;4953673;28;20043;-79
2022/06/04 00:21:01;;;;;;;4.18;2.60;;;;;;;;;;4934082;28;20272;-80
2022/06/04 00:23:28;;;;;;;3.50;2.60;;;;;;;;;;4897190;28;20054;-79
2022/06/04 00:25:58;;;;;;;3.90;2.60;;;;;;;;;;4946094;28;20043;-79
2022/06/04 00:28:26;;;;;;;2.88;2.47;;;;;;;;;;4950802;28;20065;-80
2022/06/04 00:30:54;;;;;;;4.10;2.55;;;;;;;;;;4952780;29;20126;-80
2022/06/04 00:33:22;;;;;;;3.00;2.75;;;;;;;;;;4931668;28;20046;-80
2022/06/04 00:35:53;;;;;;;;;;;;;;;;;;4933362;29;20048;-79
2022/06/04 00:38:39;;;;;;;2.78;2.42;;;;;;;;;;4940695;29;19932;-80
2022/06/04 00:41:10;;;;;;;2.75;2.55;;;;;;;;;;4951162;28;20083;-81
2022/06/04 00:43:56;;;;;;;4.43;2.58;;;;;;;;;;4933575;29;20077;-80
2022/06/04 00:46:41;;;;;;;3.38;2.25;;;;;;;;;;4931366;29;20101;-80
2022/06/04 00:49:09;;;;;;;2.53;2.33;;;;;;;;;;4931552;29;20039;-79
2022/06/04 00:51:41;;;;;;;2.58;2.38;;;;;;;;;;4940849;28;20507;-80
2022/06/04 00:54:09;;;;;;;4.07;2.60;;;;;;;;;;4921048;29;20040;-80
2022/06/04 00:56:36;;;;;;;2.70;2.45;;;;;;;;;;4939285;29;20048;-79
2022/06/04 00:59:13;;;;;;;3.78;2.53;;;;;;;;;;4946425;29;20448;-80
2022/06/04 01:01:47;;;;;;;2.80;2.50;;;;;;;;;;4946337;28;20094;-79
2022/06/04 01:04:47;;;;;;;2.45;2.25;;;;;;;;;;4934536;29;20411;-80
2022/06/04 01:07:11;;;;;;;3.10;2.20;;;;;;;;;;4929735;28;20496;-80
2022/06/04 01:09:53;;;;;;;3.22;2.17;;;;;;;;;;4920080;29;20511;-81
2022/06/04 01:12:28;;;;;;;2.53;2.33;;;;;;;;;;4917784;29;20043;-81
2022/06/04 01:15:05;;;;;;;2.67;2.20;;;;;;;;;;4936076;28;20054;-79
2022/06/04 01:17:33;;;;;;;2.63;2.40;;;;;;;;;;4927662;29;20086;-79
2022/06/04 01:20:10;;;;;;;3.75;2.33;;;;;;;;;;4938807;29;20126;-80
2022/06/04 01:22:37;;;;;;;2.40;2.20;;;;;;;;;;4953860;29;20051;-81
2022/06/04 01:25:23;;;;;;;4.53;2.35;;;;;;;;;;4943224;28;20119;-80
2022/06/04 01:27:53;;;;;;;2.47;2.28;;;;;;;;;;4933838;29;20082;-80
2022/06/04 01:30:23;;;;;;;4.10;2.40;;;;;;;;;;4944962;28;20130;-80
2022/06/04 01:32:55;;;;;;;4.60;2.33;;;;;;;;;;4930854;23;20630;-79
2022/06/04 01:35:26;;;;;;;2.47;2.20;;;;;;;;;;4940061;28;20117;-78
2022/06/04 01:37:59;;;;;;;5.07;2.30;;;;;;;;;;4951664;28;20075;-78
2022/06/04 01:43:19;;;;;;;3.17;2.10;;;;;;;;;;4965169;28;20059;-78
2022/06/04 01:45:47;;;;;;;3.90;2.25;;;;;;;;;;4926165;28;20043;-78
2022/06/04 01:48:16;;;;;;;3.50;2.45;;;;;;;;;;4933088;28;20103;-79
2022/06/04 01:50:47;;;;;;;2.17;2.08;;;;;;;;;;4944625;28;20136;-78
2022/06/04 01:53:17;;;;;;;2.50;2.40;;;;;;;;;;4948830;28;20043;-79
2022/06/04 01:56:14;;;;;;;4.10;2.42;;;;;;;;;;4945532;28;20031;-79
2022/06/04 01:58:49;;;;;;;3.28;2.70;;;;;;;;;;4927067;28;20047;-78
2022/06/04 02:01:18;;;;;;;2.53;2.17;;;;;;;;;;4941647;28;20095;-79
2022/06/04 02:03:48;;;;;;;2.70;2.50;;;;;;;;;;4948860;28;20058;-78
2022/06/04 02:06:19;;;;;;;3.58;2.60;;;;;;;;;;4946584;28;20079;-79
2022/06/04 02:08:59;;;;;;;3.15;2.90;;;;;;;;;;4952806;28;20074;-77
2022/06/04 02:11:27;;;;;;;3.15;2.83;;;;;;;;;;4944307;28;20048;-79
2022/06/04 02:13:57;;;;;;;3.10;2.60;;;;;;;;;;4918149;29;20501;-79
2022/06/04 02:16:34;;;;;;;3.53;2.30;;;;;;;;;;4939230;28;20130;-80
2022/06/04 02:19:01;;;;;;;3.30;2.63;;;;;;;;;;4954928;28;20039;-79
2022/06/04 02:21:29;;;;;;;2.78;2.58;;;;;;;;;;4953371;29;20039;-79
2022/06/04 02:23:57;;;;;;;3.85;2.42;;;;;;;;;;4953621;29;20054;-79
2022/06/04 02:26:25;;;;;;;4.25;2.50;;;;;;;;;;4935573;29;20110;-79
2022/06/04 02:28:53;;;;;;;2.78;2.42;;;;;;;;;;4934700;29;20051;-79
2022/06/04 02:31:33;;;;;;;3.45;2.70;;;;;;;;;;4943891;29;20055;-79
2022/06/04 02:34:19;;;;;;;3.35;2.75;;;;;;;;;;4946161;28;20146;-79
2022/06/04 02:37:06;;;;;;;4.20;2.90;;;;;;;;;;4927234;29;20052;-79
2022/06/04 02:39:37;;;;;;;3.15;2.92;;;;;;;;;;4944860;28;20050;-79
2022/06/04 02:42:18;;;;;;;3.30;2.83;;;;;;;;;;4939846;28;20635;-79
2022/06/04 02:44:47;;;;;;;2.97;2.67;;;;;;;;;;4949275;28;20556;-79
2022/06/04 02:47:18;;;;;;;4.22;3.10;;;;;;;;;;4951693;28;20090;-79
2022/06/04 02:49:53;;;;;;;3.42;3.20;;;;;;;;;;4944771;28;20055;-79
2022/06/04 02:52:21;;;;;;;5.25;3.13;;;;;;;;;;4939602;29;20043;-79
2022/06/04 02:54:55;;;;;;;5.25;3.22;;;;;;;;;;4925371;29;20039;-79
2022/06/04 02:57:24;;;;;;;5.38;3.20;;;;;;;;;;4949782;28;20570;-79
2022/06/04 02:59:52;;;;;;;3.72;3.38;;;;;;;;;;4964182;28;20047;-80
2022/06/04 03:02:20;;;;;;;7.53;3.97;;;;;;;;;;4947154;28;20047;-79
2022/06/04 03:04:49;;;;;;;5.95;3.75;;;;;;;;;;4943967;28;20409;-79
2022/06/04 03:07:18;;;;;;;3.75;3.33;;;;;;;;;;4939103;28;20108;-79
2022/06/04 03:09:46;;;;;;;4.95;3.60;;;;;;;;;;4931252;29;20049;-80
2022/06/04 03:12:14;;;;;;;3.90;3.50;;;;;;;;;;4965083;28;20043;-79
2022/06/04 03:14:41;;;;;;;5.28;3.85;;;;;;;;;;4934139;28;20071;-79
2022/06/04 03:17:09;;;;;;;5.00;3.85;;;;;;;;;;4934509;29;20411;-79
2022/06/04 03:19:37;;;;;;;3.88;3.60;;;;;;;;;;4950804;29;20054;-79
2022/06/04 03:22:05;;;;;;;6.30;3.92;;;;;;;;;;4936558;29;20055;-79
2022/06/04 03:24:33;;;;;;;5.82;4.03;;;;;;;;;;4937254;28;20078;-79
2022/06/04 03:27:00;;;;;;;7.03;4.78;;;;;;;;;;4955826;29;20083;-79
2022/06/04 03:29:27;;;;;;;6.55;5.05;;;;;;;;;;4954311;28;20066;-79
2022/06/04 03:31:55;;;;;;;6.80;4.88;;;;;;;;;;4945693;28;20585;-79
2022/06/04 03:34:22;;;;;;;5.60;5.10;;;;;;;;;;4927833;29;20050;-79
2022/06/04 03:36:50;;;;;;;17.52;6.28;;;;;;;;;;4958493;28;20059;-79
2022/06/04 03:39:17;;;;;;;5.70;5.07;;;;;;;;;;4946495;29;20047;-79
2022/06/04 03:41:45;;;;;;;5.97;5.32;;;;;;;;;;4942524;29;20102;-79
2022/06/04 03:44:13;;;;;;;25.58;5.85;;;;;;;;;;4951580;28;20086;-79
2022/06/04 03:46:40;;;;;;;16.48;6.72;;;;;;;;;;4951362;28;20047;-79
2022/06/04 03:49:08;;;;;;;10.32;6.38;;;;;;;;;;4939776;29;20047;-79
2022/06/04 03:51:37;;;;;;;15.25;6.10;;;;;;;;;;4949599;29;20086;-79
2022/06/04 03:54:05;;;;;;;27.35;6.20;;;;;;;;;;4938130;28;20067;-79
2022/06/04 03:56:32;;;;;;;16.13;6.28;;;;;;;;;;4950057;29;20046;-79
2022/06/04 03:58:59;;;;;;;27.83;6.50;;;;;;;;;;4941256;28;20051;-79
2022/06/04 04:01:28;;;;;;;27.70;6.30;;;;;;;;;;4952917;28;20046;-79
2022/06/04 04:03:56;;;;;;;16.90;6.00;;;;;;;;;;4946703;28;20102;-79
2022/06/04 04:06:29;;;;;;;15.05;6.03;;;;;;;;;;4945785;29;20456;-79
2022/06/04 04:08:57;;;;;;;12.98;5.90;;;;;;;;;;4966762;28;20574;-79
2022/06/04 04:11:25;;;;;;;12.55;6.20;;;;;;;;;;4944396;29;20046;-79
2022/06/04 04:13:53;;;;;;;12.35;6.20;;;;;;;;;;4936352;28;20039;-79
2022/06/04 04:16:21;;;;;;;13.73;6.10;;;;;;;;;;4942051;28;20555;-79
2022/06/04 04:18:49;;;;;;;25.35;5.90;;;;;;;;;;4955126;28;20043;-79
2022/06/04 04:21:18;;;;;;;21.02;6.75;;;;;;;;;;4943700;29;20043;-80
2022/06/04 04:23:46;;;;;;;22.23;6.30;;;;;;;;;;4954842;28;20073;-80
2022/06/04 04:26:14;;;;;;;46.40;5.70;;;;;;;;;;4938223;28;20059;-80
2022/06/04 04:28:42;;;;;;;10.05;6.03;;;;;;;;;;4950896;28;20546;-79
2022/06/04 04:31:10;;;;;;;6.65;5.60;;;;;;;;;;4928813;28;20074;-79
2022/06/04 04:33:39;;;;;;;15.05;5.07;;;;;;;;;;4945575;28;20169;-79
2022/06/04 04:36:07;;;;;;;17.35;5.97;;;;;;;;;;4939358;28;20068;-79
2022/06/04 04:38:34;;;;;;;9.60;5.88;;;;;;;;;;4949655;28;20066;-79
2022/06/04 04:41:02;;;;;;;11.60;6.80;;;;;;;;;;4941368;28;20036;-80
2022/06/04 04:43:30;;;;;;;7.40;6.70;;;;;;;;;;4941625;28;20078;-80
2022/06/04 04:46:04;;;;;;;7.63;7.03;;;;;;;;;;4943693;28;20063;-79
2022/06/04 04:48:32;;;;;;;9.32;6.20;;;;;;;;;;4963035;28;20092;-79
2022/06/04 04:51:00;;;;;;;15.55;7.20;;;;;;;;;;4954551;28;20043;-78
2022/06/04 04:53:27;;;;;;;16.55;7.60;;;;;;;;;;4953894;28;20047;-80
2022/06/04 04:55:55;;;;;;;58.80;7.93;;;;;;;;;;4944578;28;20484;-79
2022/06/04 04:58:22;;;;;;;27.05;8.02;;;;;;;;;;4945708;28;20047;-79
2022/06/04 05:00:50;;;;;;;26.83;8.70;;;;;;;;;;4947496;28;20039;-79
2022/06/04 05:03:18;;;;;;;34.67;7.97;;;;;;;;;;4926424;28;20070;-79
2022/06/04 05:05:46;;;;;;;24.55;7.65;;;;;;;;;;4929541;28;20484;-79
2022/06/04 05:08:13;;;;;;;42.75;7.50;;;;;;;;;;4931354;29;20216;-78
2022/06/04 05:10:43;;;;;;;24.63;7.63;;;;;;;;;;4943775;29;20633;-79
2022/06/04 05:13:10;;;;;;;14.93;7.35;;;;;;;;;;4929461;29;20047;-79
2022/06/04 05:15:38;;;;;;;11.55;7.40;;;;;;;;;;4931582;28;20282;-79
2022/06/04 05:18:05;;;;;;;12.30;7.97;;;;;;;;;;4952459;28;20052;-80
2022/06/04 05:20:34;;;;;;;7.93;7.22;;;;;;;;;;4939145;28;20518;-80
2022/06/04 05:23:01;;;;;;;9.05;7.15;;;;;;;;;;4933385;28;20054;-81
2022/06/04 05:25:28;;;;;;;9.40;6.72;;;;;;;;;;4943775;28;20323;-79
2022/06/04 05:28:02;;;;;;;8.10;7.30;;;;;;;;;;4941115;28;20047;-79
2022/06/04 05:30:30;;;;;;;7.15;6.45;;;;;;;;;;4937253;28;20472;-79
2022/06/04 05:32:57;;;;;;;6.35;5.85;;;;;;;;;;4932399;29;20035;-79
2022/06/04 05:35:24;;;;;;;6.72;6.13;;;;;;;;;;4950545;28;20112;-79
2022/06/04 05:37:52;;;;;;;6.70;6.10;;;;;;;;;;4944425;28;20098;-79
2022/06/04 05:40:19;;;;;;;7.60;6.80;;;;;;;;;;4964290;28;20096;-80
2022/06/04 05:42:47;;;;;;;7.93;7.32;;;;;;;;;;4949896;28;20051;-81
2022/06/04 05:45:15;;;;;;;7.53;6.90;;;;;;;;;;4942820;28;20075;-80
2022/06/04 05:47:43;;;;;;;8.73;6.82;;;;;;;;;;4948121;28;20154;-80
2022/06/04 05:50:10;;;;;;;7.95;7.30;;;;;;;;;;4981435;28;20103;-80
2022/06/04 05:52:39;;;;;;;8.32;6.93;;;;;;;;;;4935790;29;20143;-78
2022/06/04 05:55:06;;;;;;;6.28;5.78;;;;;;;;;;4948740;28;20102;-78
2022/06/04 05:57:34;;;;;;;6.80;6.10;;;;;;;;;;4949816;28;20058;-78
2022/06/04 06:00:01;;;;;;;6.75;6.25;;;;;;;;;;4949006;28;20111;-78
2022/06/04 06:02:38;;;;;;;6.00;5.60;;;;;;;;;;4950139;28;20056;-81
2022/06/04 06:05:05;;;;;;;6.55;6.05;;;;;;;;;;4948288;28;20051;-79
2022/06/04 06:07:33;;;;;;;6.93;6.43;;;;;;;;;;4945196;28;20520;-78
2022/06/04 06:10:00;;;;;;;6.43;5.88;;;;;;;;;;4933356;28;20411;-78
2022/06/04 06:12:28;;;;;;;6.20;5.70;;;;;;;;;;4958945;28;20071;-79
2022/06/04 06:14:56;;;;;;;5.78;5.38;;;;;;;;;;4937285;28;20051;-79
2022/06/04 06:17:23;;;;;;;6.03;5.50;;;;;;;;;;4951268;28;20078;-78
2022/06/04 06:19:53;;;;;;;5.75;5.35;;;;;;;;;;4944908;29;20108;-78
2022/06/04 06:22:21;;;;;;;5.68;5.28;;;;;;;;;;4954739;29;20170;-79
2022/06/04 06:24:49;;;;;;;6.75;5.75;;;;;;;;;;4965128;28;20051;-79
2022/06/04 06:27:16;;;;;;;5.65;5.25;;;;;;;;;;4948580;28;20044;-79
2022/06/04 06:29:44;;;;;;;5.38;5.07;;;;;;;;;;4946662;28;20043;-79
2022/06/04 06:32:11;;;;;;;5.03;4.72;;;;;;;;;;4959540;28;20039;-79
2022/06/04 06:34:39;;;;;;;6.63;6.00;;;;;;;;;;4947046;28;20043;-79
2022/06/04 06:37:06;;;;;;;6.32;5.47;;;;;;;;;;4947611;28;20071;-79
2022/06/04 06:39:34;;;;;;;8.73;6.25;;;;;;;;;;4956936;28;20125;-80
2022/06/04 06:42:01;;;;;;;6.75;5.30;;;;;;;;;;4954111;28;20594;-80
2022/06/04 06:44:44;;;;;;;5.50;5.10;;;;;;;;;;4945056;28;20043;-79
2022/06/04 06:47:12;;;;;;;12.18;6.45;;;;;;;;;;4973314;28;20043;-80
2022/06/04 06:49:40;;;;;;;14.07;6.75;;;;;;;;;;4938593;28;20073;-80
2022/06/04 06:52:11;;;;;;;;;;;;;;;;;;4946215;28;20499;-81
2022/06/04 06:54:48;;;;;;;7.47;4.85;;;;;;;;;;4949543;28;20398;-81
2022/06/04 06:57:17;;;;;;;5.03;4.70;;;;;;;;;;4911950;29;20047;-80
2022/06/04 06:59:48;;;;;;;5.30;4.80;;;;;;;;;;4935641;29;20071;-80
2022/06/04 07:02:23;;;;;;;5.05;4.65;;;;;;;;;;4922411;29;20055;-80
2022/06/04 07:04:50;;;;;;;5.07;4.68;;;;;;;;;;4938795;29;20051;-80
2022/06/04 07:07:18;;;;;;;8.15;4.68;;;;;;;;;;4940273;28;20123;-80
2022/06/04 07:09:45;;;;;;;4.57;4.25;;;;;;;;;;4952097;29;20135;-80
2022/06/04 07:12:13;;;;;;;4.57;4.00;;;;;;;;;;4944287;29;20043;-80
2022/06/04 07:14:40;;;;;;;3.72;3.38;;;;;;;;;;4945992;29;20362;-80
2022/06/04 07:17:08;;;;;;;4.00;3.42;;;;;;;;;;4919595;29;20063;-79
2022/06/04 07:19:36;;;;;;;4.43;4.00;;;;;;;;;;4947488;29;20046;-79
2022/06/04 07:22:03;;;;;;;3.47;2.95;;;;;;;;;;4976097;28;20055;-81
2022/06/04 07:24:31;;;;;;;3.97;3.58;;;;;;;;;;4943426;29;20078;-80
2022/06/04 07:26:59;;;;;;;3.75;3.28;;;;;;;;;;4951308;28;20149;-80
2022/06/04 07:29:26;;;;;;;3.17;2.70;;;;;;;;;;4949826;29;20044;-80
2022/06/04 07:31:54;;;;;;;3.22;2.92;;;;;;;;;;4936062;29;20059;-81
2022/06/04 07:34:22;;;;;;;2.97;2.67;;;;;;;;;;4939168;23;20075;-79
2022/06/04 07:37:00;;;;;;;2.88;2.67;;;;;;;;;;4939132;29;20082;-80
2022/06/04 07:39:31;;;;;;;2.60;2.40;;;;;;;;;;4942698;28;20051;-80
2022/06/04 07:41:58;;;;;;;2.92;2.42;;;;;;;;;;4957305;28;20418;-80
2022/06/04 07:44:34;;;;;;;2.00;1.90;;;;;;;;;;4948511;28;20070;-80
2022/06/04 07:47:02;;;;;;;5.03;2.40;;;;;;;;;;4921292;28;20056;-80
2022/06/04 07:49:30;;;;;;;3.13;2.25;;;;;;;;;;4953572;28;20146;-79
2022/06/04 07:51:57;;;;;;;3.95;1.77;;;;;;;;;;4949632;28;20154;-79
2022/06/04 07:54:25;;;;;;;2.20;2.00;;;;;;;;;;4942095;28;20071;-79
2022/06/04 07:56:54;;;;;;;3.00;2.70;;;;;;;;;;4957772;29;20066;-79
2022/06/04 07:59:21;;;;;;;1.58;1.48;;;;;;;;;;4961140;28;20055;-79
2022/06/04 08:01:49;;;;;;;1.77;1.50;;;;;;;;;;4936309;28;20236;-80
2022/06/04 08:04:16;;;;;;;2.90;1.63;;;;;;;;;;4956499;28;20061;-79
2022/06/04 08:06:44;;;;;;;1.40;1.30;;;;;;;;;;4938985;28;20057;-79
2022/06/04 08:09:12;;;;;;;2.53;1.30;;;;;;;;;;4959196;28;20078;-79
2022/06/04 08:11:40;;;;;;;3.35;1.50;;;;;;;;;;4971689;28;20058;-79
2022/06/04 08:14:10;;;;;;;1.30;1.30;;;;;;;;;;4960576;28;20511;-79
2022/06/04 08:16:39;;;;;;;2.53;1.42;;;;;;;;;;4964185;28;20096;-79
2022/06/04 08:19:07;;;;;;;1.45;1.35;;;;;;;;;;4952251;28;20821;-80
2022/06/04 08:21:36;;;;;;;1.92;1.80;;;;;;;;;;4959872;28;20180;-80
2022/06/04 08:24:04;;;;;;;1.92;1.77;;;;;;;;;;4950910;28;20116;-80
2022/06/04 08:26:34;;;;;;;2.00;1.90;;;;;;;;;;4938249;28;20900;-80
2022/06/04 08:29:02;;;;;;;3.55;1.67;;;;;;;;;;4972257;28;20050;-80
2022/06/04 08:31:29;;;;;;;1.90;1.70;;;;;;;;;;4955646;28;20047;-80
2022/06/04 08:33:57;;;;;;;3.60;1.95;;;;;;;;;;4954272;28;20055;-80
2022/06/04 08:36:24;;;;;;;2.10;1.85;;;;;;;;;;4950814;28;20883;-80
2022/06/04 08:38:51;;;;;;;2.10;1.92;;;;;;;;;;4974155;28;20051;-80
2022/06/04 08:41:21;;;;;;;2.10;2.00;;;;;;;;;;4968086;28;20098;-80
2022/06/04 08:44:07;;;;;;;4.13;2.08;;;;;;;;;;4973378;28;20105;-81
2022/06/04 08:46:39;;;;;;;3.42;1.90;;;;;;;;;;4967512;28;20542;-80
2022/06/04 08:49:11;;;;;;;2.35;1.90;;;;;;;;;;4958410;28;20046;-80
2022/06/04 08:51:39;;;;;;;2.47;2.00;;;;;;;;;;4955267;28;20116;-79
2022/06/04 08:59:54;;;;;;;2.22;1.73;;;;;;;;;;4941362;28;20082;-80
2022/06/04 09:02:23;;;;;;;1.75;1.65;;;;;;;;;;4959322;28;20070;-80
2022/06/04 09:05:16;;;;;;;2.03;1.80;;;;;;;;;;4959080;28;20078;-80
2022/06/04 09:07:49;;;;;;;2.25;1.90;;;;;;;;;;4965443;28;20641;-80
2022/06/04 09:10:24;;;;;;;3.95;2.10;;;;;;;;;;4953457;28;20073;-80
2022/06/04 09:12:55;;;;;;;2.42;1.70;;;;;;;;;;4926863;28;20050;-79
2022/06/04 09:15:24;;;;;;;3.70;2.20;;;;;;;;;;4948421;28;20078;-80
2022/06/04 09:17:52;;;;;;;120.97;51.95;;;;;;;;;;4953524;28;20047;-80
2022/06/04 09:20:35;;;;;;;13.35;7.63;;;;;;;;;;4927369;28;20053;-80
2022/06/04 09:23:07;;;;;;;3.33;2.50;;;;;;;;;;4933065;28;20043;-80
2022/06/04 09:25:59;;;;;;;10.45;5.63;;;;;;;;;;4935766;28;20047;-80
2022/06/04 09:28:48;;;;;;;6.13;2.65;;;;;;;;;;4958427;28;20521;-80
2022/06/04 09:31:19;;;;;;;5.43;2.90;;;;;;;;;;4943833;28;20050;-80
2022/06/04 09:33:50;;;;;;;4.10;2.47;;;;;;;;;;4961953;28;20047;-81
2022/06/04 09:36:19;;;;;;;6.13;3.40;;;;;;;;;;4953820;28;20355;-81
2022/06/04 09:38:54;;;;;;;2.45;1.88;;;;;;;;;;4957190;28;20467;-80
2022/06/04 09:41:23;;;;;;;4.85;1.92;;;;;;;;;;4957165;28;20058;-81
2022/06/04 09:44:26;;;;;;;3.15;1.90;;;;;;;;;;4960892;28;20421;-80
2022/06/04 09:47:16;;;;;;;3.65;1.88;;;;;;;;;;4863987;29;20118;-80
2022/06/04 09:49:55;;;;;;;2.83;2.05;;;;;;;;;;4969442;28;20081;-80
2022/06/04 09:52:37;;;;;;;3.08;2.30;;;;;;;;;;4974008;28;20031;-80
2022/06/04 09:55:04;;;;;;;;;;;;;;;;;;4960157;28;20046;-80
2022/06/04 09:57:35;;;;;;;2.42;1.80;;;;;;;;;;4969065;28;19926;-80
2022/06/04 10:00:05;;;;;;;1.95;1.67;;;;;;;;;;4960142;28;20066;-80
2022/06/04 10:02:33;;;;;;;1.70;1.60;;;;;;;;;;4958521;28;20050;-77
2022/06/04 10:05:07;;;;;;;1.88;1.77;;;;;;;;;;4933598;28;20093;-79
2022/06/04 10:07:36;;;;;;;2.78;2.10;;;;;;;;;;4923594;28;20546;-80
2022/06/04 10:10:30;;;;;;;3.70;2.00;;;;;;;;;;4960058;28;20679;-80
2022/06/04 10:15:44;;;;;;;2.08;1.88;;;;;;;;;;4947324;28;20043;-80
2022/06/04 10:18:20;;;;;;;2.40;1.70;;;;;;;;;;4930272;28;20050;-81
2022/06/04 10:20:55;;;;;;;2.10;1.90;;;;;;;;;;4939982;28;20039;-80
2022/06/04 10:23:22;;;;;;;2.58;1.90;;;;;;;;;;4938010;28;20090;-80
2022/06/04 10:26:09;;;;;;;2.13;1.83;;;;;;;;;;4942092;28;20043;-80
2022/06/04 10:28:49;;;;;;;1.80;1.70;;;;;;;;;;4963730;28;20061;-80
2022/06/04 10:31:23;;;;;;;2.10;1.90;;;;;;;;;;4964714;28;20392;-80
2022/06/04 10:33:50;;;;;;;2.17;1.80;;;;;;;;;;4962137;28;20050;-81
2022/06/04 10:36:24;;;;;;;4.00;1.80;;;;;;;;;;4939516;28;20050;-80
2022/06/04 10:38:52;;;;;;;1.70;1.60;;;;;;;;;;4943120;28;20051;-80
2022/06/04 10:41:22;;;;;;;2.15;1.95;;;;;;;;;;4947641;28;20121;-80
2022/06/04 10:44:02;;;;;;;2.58;2.08;;;;;;;;;;4929946;28;20067;-81
2022/06/04 10:46:51;;;;;;;2.95;1.92;;;;;;;;;;4943405;28;20041;-81
2022/06/04 10:49:47;;;;;;;1.80;1.60;;;;;;;;;;4948794;28;20047;-80
2022/06/04 10:52:28;;;;;;;2.90;1.90;;;;;;;;;;4968384;28;20755;-80
2022/06/04 10:54:55;;;;;;;2.03;1.90;;;;;;;;;;4948787;28;20058;-79
2022/06/04 10:57:29;;;;;;;1.70;1.60;;;;;;;;;;4940242;28;20137;-80
2022/06/04 10:59:57;;;;;;;4.28;1.70;;;;;;;;;;4971806;28;20039;-80
2022/06/04 11:02:37;;;;;;;3.05;1.70;;;;;;;;;;4956882;28;20684;-79
2022/06/04 11:05:09;;;;;;;1.92;1.55;;;;;;;;;;4939007;28;20074;-79
2022/06/04 11:07:53;;;;;;;4.30;1.50;;;;;;;;;;4944994;28;20057;-79
2022/06/04 11:10:24;;;;;;;3.50;1.60;;;;;;;;;;4975621;28;20058;-80
2022/06/04 11:13:08;;;;;;;1.23;1.23;;;;;;;;;;4968971;28;20094;-79
2022/06/04 11:15:35;;;;;;;3.83;1.50;;;;;;;;;;4968819;28;20046;-80
2022/06/04 11:18:22;;;;;;;3.03;1.35;;;;;;;;;;4950472;28;20116;-80
2022/06/04 11:20:55;;;;;;;2.75;1.60;;;;;;;;;;4947174;28;20054;-80
2022/06/04 11:23:29;;;;;;;1.90;1.58;;;;;;;;;;4966679;28;20114;-81
2022/06/04 11:26:01;;;;;;;2.90;1.90;;;;;;;;;;4954631;28;20053;-81
2022/06/04 11:28:35;;;;;;;2.25;1.67;;;;;;;;;;4965733;28;20083;-80
2022/06/04 11:31:09;;;;;;;2.30;2.10;;;;;;;;;;4962611;28;20043;-80
2022/06/04 11:33:59;;;;;;;2.05;1.75;;;;;;;;;;4961249;28;20255;-79
2022/06/04 11:36:26;;;;;;;3.80;2.13;;;;;;;;;;4939356;28;20135;-80
2022/06/04 11:38:53;;;;;;;2.13;2.03;;;;;;;;;;4967990;28;20107;-80
2022/06/04 11:41:28;;;;;;;2.60;1.92;;;;;;;;;;4979905;28;20039;-80
2022/06/04 11:43:56;;;;;;;;;;;;;;;;;;4974494;28;20046;-80
2022/06/04 11:46:23;;;;;;;2.25;1.90;;;;;;;;;;4948831;28;20094;-80
2022/06/04 11:49:09;;;;;;;2.08;1.90;;;;;;;;;;4960055;28;20102;-80
2022/06/04 11:51:37;;;;;;;2.13;1.70;;;;;;;;;;4930685;28;20131;-80
2022/06/04 11:54:23;;;;;;;1.98;1.83;;;;;;;;;;4945200;28;20051;-80
2022/06/04 11:57:09;;;;;;;2.95;1.60;;;;;;;;;;4958793;28;20046;-80
2022/06/04 11:59:52;;;;;;;2.17;1.58;;;;;;;;;;4972219;28;20391;-81
2022/06/04 12:02:25;;;;;;;2.80;1.70;;;;;;;;;;4972877;28;20132;-80
2022/06/04 12:04:53;;;;;;;3.75;1.80;;;;;;;;;;4970883;28;20046;-79
2022/06/04 12:07:40;;;;;;;3.67;1.73;;;;;;;;;;4968155;28;20309;-80
2022/06/04 12:10:27;;;;;;;3.00;1.80;;;;;;;;;;4965074;28;20042;-80
2022/06/04 12:13:02;;;;;;;3.58;1.60;;;;;;;;;;4944479;28;20089;-80
2022/06/04 12:15:41;;;;;;;1.77;1.65;;;;;;;;;;4939875;28;20054;-79
2022/06/04 12:18:20;;;;;;;4.32;1.90;;;;;;;;;;4952957;28;21480;-79
2022/06/04 12:26:29;;;;;;;2.15;1.70;;;;;;;;;;4969152;28;20430;-80
2022/06/04 12:28:57;;;;;;;1.75;1.65;;;;;;;;;;4961230;28;20137;-81
2022/06/04 12:31:27;;;;;;;2.10;1.63;;;;;;;;;;4963183;28;20494;-81
2022/06/04 12:33:54;;;;;;;1.38;1.30;;;;;;;;;;4950618;28;20080;-80
2022/06/04 12:36:27;;;;;;;2.03;1.27;;;;;;;;;;4971518;28;20043;-80
2022/06/04 12:39:18;;;;;;;4.05;1.83;;;;;;;;;;4975403;28;20118;-80
2022/06/04 12:41:48;;;;;;;3.60;1.60;;;;;;;;;;4949696;28;20579;-80
2022/06/04 12:44:23;;;;;;;1.73;1.38;;;;;;;;;;4972344;28;20039;-80
2022/06/04 12:46:52;;;;;;;2.83;1.50;;;;;;;;;;4972814;28;20035;-80
2022/06/04 12:49:23;;;;;;;3.00;1.73;;;;;;;;;;4948648;28;20054;-79
2022/06/04 12:52:14;;;;;;;2.78;1.35;;;;;;;;;;4931832;28;20046;-79
2022/06/04 12:54:57;;;;;;;2.40;1.60;;;;;;;;;;4903906;28;20055;-80
2022/06/04 12:57:43;;;;;;;5.40;1.60;;;;;;;;;;4964881;28;20100;-81
2022/06/04 13:00:18;;;;;;;5.97;1.70;;;;;;;;;;4949984;28;20055;-80
2022/06/04 13:03:04;;;;;;;3.17;1.65;;;;;;;;;;4948382;28;20122;-80
2022/06/04 13:05:31;;;;;;;2.92;1.83;;;;;;;;;;4961476;28;20051;-80
2022/06/04 13:08:17;;;;;;;1.52;1.42;;;;;;;;;;4941174;28;20042;-80
2022/06/04 13:10:48;;;;;;;2.67;1.35;;;;;;;;;;4979642;28;20054;-81
2022/06/04 13:13:43;;;;;;;1.55;1.38;;;;;;;;;;4961124;28;20065;-80
2022/06/04 13:16:20;;;;;;;6.28;1.70;;;;;;;;;;4954445;28;20058;-79
2022/06/04 13:19:13;;;;;;;5.05;1.23;;;;;;;;;;4969951;28;20339;-80
2022/06/04 13:21:47;;;;;;;2.17;1.33;;;;;;;;;;4951459;28;20105;-79
2022/06/04 13:24:21;;;;;;;4.35;1.83;;;;;;;;;;4966038;28;20435;-80
2022/06/04 13:27:11;;;;;;;6.93;1.50;;;;;;;;;;4970749;28;20053;-81
2022/06/04 13:29:39;;;;;;;4.00;1.17;;;;;;;;;;4957841;28;20045;-81
2022/06/04 13:32:10;;;;;;;2.67;1.25;;;;;;;;;;4973343;28;20051;-81
2022/06/04 13:34:38;;;;;;;2.35;1.30;;;;;;;;;;5033681;23;20102;-87
2022/06/04 13:41:06;;;;;;;3.15;1.52;;;;;;;;;;4901166;29;20129;-87
2022/06/04 13:43:48;;;;;;;3.85;1.40;;;;;;;;;;4903343;29;20139;-87
2022/06/04 13:46:36;;;;;;;3.85;1.23;;;;;;;;;;4898963;29;20060;-87
2022/06/04 13:49:13;;;;;;;3.22;1.90;;;;;;;;;;4911272;29;20056;-90
2022/06/04 13:52:03;;;;;;;3.92;1.20;;;;;;;;;;4902509;29;20056;-87
2022/06/04 13:54:54;;;;;;;3.17;1.40;;;;;;;;;;4895040;29;20110;-86
2022/06/04 13:57:45;;;;;;;2.85;1.25;;;;;;;;;;4914097;29;20087;-89
2022/06/04 14:00:30;;;;;;;3.63;1.63;;;;;;;;;;4896130;29;20044;-87
2022/06/04 14:03:12;;;;;;;3.83;1.13;;;;;;;;;;4888811;29;20060;-87
2022/06/04 14:05:58;;;;;;;2.13;1.30;;;;;;;;;;4911617;29;20705;-86
2022/06/04 14:08:30;;;;;;;1.63;1.45;;;;;;;;;;4895834;29;20143;-86
2022/06/04 14:11:03;;;;;;;2.50;1.17;;;;;;;;;;4909640;29;20117;-86
2022/06/04 14:13:52;;;;;;;4.57;1.58;;;;;;;;;;4899253;29;20368;-87
2022/06/04 14:16:22;;;;;;;1.75;1.20;;;;;;;;;;4895099;29;20219;-86
2022/06/04 14:18:57;;;;;;;2.10;1.20;;;;;;;;;;4938942;28;20065;-87
2022/06/04 14:21:41;;;;;;;3.38;1.40;;;;;;;;;;4969627;28;20094;-87
2022/06/04 14:24:33;;;;;;;2.83;1.38;;;;;;;;;;4993757;23;20112;-86
2022/06/04 14:27:26;;;;;;;4.38;1.40;;;;;;;;;;4964100;28;20050;-87
2022/06/04 14:30:20;;;;;;;4.82;1.35;;;;;;;;;;4903256;29;20063;-86
2022/06/04 14:33:00;;;;;;;1.83;1.08;;;;;;;;;;4928709;29;20043;-87
2022/06/04 14:35:33;;;;;;;3.15;1.30;;;;;;;;;;4924407;28;20063;-88
2022/06/04 14:38:24;;;;;;;2.38;1.15;;;;;;;;;;4945627;28;20429;-87
2022/06/04 14:41:07;;;;;;;2.20;1.20;;;;;;;;;;4913902;29;20696;-87
2022/06/04 14:43:53;;;;;;;2.03;1.20;;;;;;;;;;4946325;29;20061;-88
2022/06/04 14:46:36;;;;;;;1.52;0.98;;;;;;;;;;4939529;29;20437;-87
2022/06/04 14:49:15;;;;;;;4.35;1.38;;;;;;;;;;4927328;29;20074;-86
2022/06/04 14:51:52;;;;;;;3.53;1.05;;;;;;;;;;4924182;29;20142;-87
2022/06/04 14:54:20;;;;;;;3.38;1.23;;;;;;;;;;4940773;29;20532;-86
2022/06/04 14:57:07;;;;;;;2.47;1.10;;;;;;;;;;4926403;29;20126;-86
2022/06/04 14:59:54;;;;;;;1.02;0.88;;;;;;;;;;4940443;28;20043;-91
2022/06/04 15:02:24;;;;;;;;;;;;;;;;;;4944843;29;20039;-88
2022/06/04 15:04:58;;;;;;;3.58;1.48;;;;;;;;;;4945502;29;19930;-89
2022/06/04 15:07:29;;;;;;;1.60;0.80;;;;;;;;;;4951811;29;20059;-90
2022/06/04 15:18:39;;;;;;;3.30;1.20;;;;;;;;;;4972531;23;20526;-81
2022/06/04 15:21:12;;;;;;;3.70;1.33;;;;;;;;;;4979061;28;20034;-83
2022/06/04 15:23:57;;;;;;;3.08;1.60;;;;;;;;;;4973172;28;20054;-83
2022/06/04 15:26:45;;;;;;;2.20;1.20;;;;;;;;;;4990383;28;20046;-83
2022/06/04 15:35:01;;;;;;;2.28;1.30;;;;;;;;;;4956650;28;20051;-82
2022/06/04 15:37:46;;;;;;;3.97;1.40;;;;;;;;;;4960585;28;20142;-81
2022/06/04 15:40:21;;;;;;;2.35;1.25;;;;;;;;;;4962560;28;20098;-82
2022/06/04 15:42:54;;;;;;;2.05;1.38;;;;;;;;;;4951994;28;20074;-83
2022/06/04 15:45:42;;;;;;;3.25;1.50;;;;;;;;;;4962439;28;20931;-82
2022/06/04 15:48:11;;;;;;;4.38;1.40;;;;;;;;;;4933835;28;20072;-82
2022/06/04 15:56:23;;;;;;;2.95;1.38;;;;;;;;;;4944699;28;20066;-82
2022/06/04 15:58:50;;;;;;;2.15;1.08;;;;;;;;;;4966094;28;20070;-82
2022/06/04 16:01:26;;;;;;;3.78;1.30;;;;;;;;;;4948685;28;20121;-83
2022/06/04 16:04:00;;;;;;;1.65;1.30;;;;;;;;;;4967277;28;20771;-82